Pittston Township, Pennsylvania
Current Conditions -  °F | °C
As of 1:18 PM on Monday 22 Dec 2014 (Local Time) from KAVP Reporting Station
Broken Clouds Broken Clouds  
Wind Chill:   Ceiling: 2400
Heat Index:   Visibility: 10mi
Dew Point: -2°   Wind: 7mph
Humidity: 63%   Direction: 150°SSE
Pressure: 30.18"   Gusts: NA
Location:  41.2973°N, 75.7399°W
Report Text: KAVP 221818Z AUTO 15006KT 10SM BKN024 04/M02 A3018 RMK AO2 T00441022
Loading
Personal Weather Stations






























Interactive Weather Map New forecast layout! Learn more

10-Day Weather Forecast

Advertisements
Track Severe Weather on mobile